sensor_id;sensor_type;location;lat;lon;timestamp;P1;durP1;ratioP1;P2;durP2;ratioP2
8279;SDS011;8335;42.646;23.380;2023-09-19T00:01:33;5.87;;;4.50;;
8279;SDS011;8335;42.646;23.380;2023-09-19T00:04:01;6.57;;;4.70;;
8279;SDS011;8335;42.646;23.380;2023-09-19T00:06:28;6.63;;;4.90;;
8279;SDS011;8335;42.646;23.380;2023-09-19T00:08:56;6.37;;;4.90;;
8279;SDS011;8335;42.646;23.380;2023-09-19T00:11:25;7.50;;;4.70;;
8279;SDS011;8335;42.646;23.380;2023-09-19T00:13:52;6.10;;;4.87;;
8279;SDS011;8335;42.646;23.380;2023-09-19T00:16:19;6.40;;;4.40;;
8279;SDS011;8335;42.646;23.380;2023-09-19T00:18:46;7.17;;;4.97;;
8279;SDS011;8335;42.646;23.380;2023-09-19T00:21:15;6.50;;;4.83;;
8279;SDS011;8335;42.646;23.380;2023-09-19T00:23:42;6.63;;;4.97;;
8279;SDS011;8335;42.646;23.380;2023-09-19T00:26:09;7.97;;;5.10;;
8279;SDS011;8335;42.646;23.380;2023-09-19T00:28:35;8.10;;;5.13;;
8279;SDS011;8335;42.646;23.380;2023-09-19T00:31:03;7.07;;;5.30;;
8279;SDS011;8335;42.646;23.380;2023-09-19T00:33:30;10.63;;;5.47;;
8279;SDS011;8335;42.646;23.380;2023-09-19T00:35:57;5.67;;;4.80;;
8279;SDS011;8335;42.646;23.380;2023-09-19T00:38:26;6.97;;;5.07;;
8279;SDS011;8335;42.646;23.380;2023-09-19T00:40:53;7.37;;;4.97;;
8279;SDS011;8335;42.646;23.380;2023-09-19T00:43:22;11.77;;;5.20;;
8279;SDS011;8335;42.646;23.380;2023-09-19T00:45:50;8.83;;;5.20;;
8279;SDS011;8335;42.646;23.380;2023-09-19T00:48:19;7.43;;;5.13;;
8279;SDS011;8335;42.646;23.380;2023-09-19T00:50:47;8.43;;;4.90;;
8279;SDS011;8335;42.646;23.380;2023-09-19T00:53:15;6.03;;;5.10;;
8279;SDS011;8335;42.646;23.380;2023-09-19T00:55:47;6.30;;;5.13;;
8279;SDS011;8335;42.646;23.380;2023-09-19T00:58:16;5.50;;;4.90;;
8279;SDS011;8335;42.646;23.380;2023-09-19T01:00:43;6.87;;;5.27;;
8279;SDS011;8335;42.646;23.380;2023-09-19T01:03:10;10.30;;;5.90;;
8279;SDS011;8335;42.646;23.380;2023-09-19T01:05:38;8.67;;;5.83;;
8279;SDS011;8335;42.646;23.380;2023-09-19T01:08:05;11.17;;;6.40;;
8279;SDS011;8335;42.646;23.380;2023-09-19T01:10:33;9.43;;;5.30;;
8279;SDS011;8335;42.646;23.380;2023-09-19T01:13:03;7.57;;;5.13;;
8279;SDS011;8335;42.646;23.380;2023-09-19T01:15:38;6.07;;;5.07;;
8279;SDS011;8335;42.646;23.380;2023-09-19T01:18:15;6.53;;;5.33;;
8279;SDS011;8335;42.646;23.380;2023-09-19T01:20:51;7.50;;;5.00;;
8279;SDS011;8335;42.646;23.380;2023-09-19T01:23:35;7.57;;;5.07;;
8279;SDS011;8335;42.646;23.380;2023-09-19T01:26:18;7.23;;;5.47;;
8279;SDS011;8335;42.646;23.380;2023-09-19T01:29:07;10.97;;;5.33;;
8279;SDS011;8335;42.646;23.380;2023-09-19T01:31:55;8.37;;;5.90;;
8279;SDS011;8335;42.646;23.380;2023-09-19T01:34:26;8.87;;;5.57;;
8279;SDS011;8335;42.646;23.380;2023-09-19T01:36:53;8.90;;;5.67;;
8279;SDS011;8335;42.646;23.380;2023-09-19T01:39:20;7.87;;;6.00;;
8279;SDS011;8335;42.646;23.380;2023-09-19T01:41:51;9.93;;;5.50;;
8279;SDS011;8335;42.646;23.380;2023-09-19T01:44:27;7.97;;;5.50;;
8279;SDS011;8335;42.646;23.380;2023-09-19T01:47:04;7.83;;;5.53;;
8279;SDS011;8335;42.646;23.380;2023-09-19T01:49:42;6.13;;;5.33;;
8279;SDS011;8335;42.646;23.380;2023-09-19T01:52:15;8.30;;;5.53;;
8279;SDS011;8335;42.646;23.380;2023-09-19T01:54:46;9.53;;;5.57;;
8279;SDS011;8335;42.646;23.380;2023-09-19T01:57:19;8.13;;;5.60;;
8279;SDS011;8335;42.646;23.380;2023-09-19T01:59:54;6.63;;;5.20;;
8279;SDS011;8335;42.646;23.380;2023-09-19T02:02:28;6.17;;;5.57;;
8279;SDS011;8335;42.646;23.380;2023-09-19T02:04:56;12.87;;;6.10;;
8279;SDS011;8335;42.646;23.380;2023-09-19T02:07:22;6.83;;;5.73;;
8279;SDS011;8335;42.646;23.380;2023-09-19T02:09:49;8.33;;;6.07;;
8279;SDS011;8335;42.646;23.380;2023-09-19T02:12:16;7.73;;;5.47;;
8279;SDS011;8335;42.646;23.380;2023-09-19T02:14:43;7.93;;;5.97;;
8279;SDS011;8335;42.646;23.380;2023-09-19T02:17:09;8.40;;;6.07;;
8279;SDS011;8335;42.646;23.380;2023-09-19T02:19:39;8.17;;;5.90;;
8279;SDS011;8335;42.646;23.380;2023-09-19T02:22:06;9.20;;;5.80;;
8279;SDS011;8335;42.646;23.380;2023-09-19T02:24:35;8.13;;;5.70;;
8279;SDS011;8335;42.646;23.380;2023-09-19T02:27:02;6.57;;;5.73;;
8279;SDS011;8335;42.646;23.380;2023-09-19T02:29:31;8.20;;;6.00;;
8279;SDS011;8335;42.646;23.380;2023-09-19T02:31:59;7.37;;;6.17;;
8279;SDS011;8335;42.646;23.380;2023-09-19T02:34:27;8.90;;;5.50;;
8279;SDS011;8335;42.646;23.380;2023-09-19T02:36:56;7.20;;;5.47;;
8279;SDS011;8335;42.646;23.380;2023-09-19T02:39:23;10.60;;;5.73;;
8279;SDS011;8335;42.646;23.380;2023-09-19T02:41:49;8.33;;;5.87;;
8279;SDS011;8335;42.646;23.380;2023-09-19T02:44:16;7.53;;;6.17;;
8279;SDS011;8335;42.646;23.380;2023-09-19T02:46:45;9.93;;;5.83;;
8279;SDS011;8335;42.646;23.380;2023-09-19T02:49:12;8.97;;;6.63;;
8279;SDS011;8335;42.646;23.380;2023-09-19T02:51:39;7.43;;;5.97;;
8279;SDS011;8335;42.646;23.380;2023-09-19T02:54:08;8.27;;;5.90;;
8279;SDS011;8335;42.646;23.380;2023-09-19T02:56:35;8.93;;;6.03;;
8279;SDS011;8335;42.646;23.380;2023-09-19T02:59:02;7.57;;;5.90;;
8279;SDS011;8335;42.646;23.380;2023-09-19T03:01:30;12.03;;;6.37;;
8279;SDS011;8335;42.646;23.380;2023-09-19T03:03:57;9.70;;;6.60;;
8279;SDS011;8335;42.646;23.380;2023-09-19T03:06:24;9.17;;;6.53;;
8279;SDS011;8335;42.646;23.380;2023-09-19T03:08:51;10.70;;;6.40;;
8279;SDS011;8335;42.646;23.380;2023-09-19T03:11:19;8.33;;;5.90;;
8279;SDS011;8335;42.646;23.380;2023-09-19T03:13:50;7.57;;;6.17;;
8279;SDS011;8335;42.646;23.380;2023-09-19T03:16:18;8.53;;;6.67;;
8279;SDS011;8335;42.646;23.380;2023-09-19T03:18:47;10.57;;;6.03;;
8279;SDS011;8335;42.646;23.380;2023-09-19T03:21:14;7.30;;;6.03;;
8279;SDS011;8335;42.646;23.380;2023-09-19T03:23:42;9.67;;;6.13;;
8279;SDS011;8335;42.646;23.380;2023-09-19T03:26:10;7.53;;;6.10;;
8279;SDS011;8335;42.646;23.380;2023-09-19T03:28:40;10.17;;;5.93;;
8279;SDS011;8335;42.646;23.380;2023-09-19T03:31:08;7.50;;;6.47;;
8279;SDS011;8335;42.646;23.380;2023-09-19T03:33:36;9.00;;;5.83;;
8279;SDS011;8335;42.646;23.380;2023-09-19T03:36:03;8.83;;;6.13;;
8279;SDS011;8335;42.646;23.380;2023-09-19T03:38:31;7.97;;;6.33;;
8279;SDS011;8335;42.646;23.380;2023-09-19T03:40:59;10.53;;;6.90;;
8279;SDS011;8335;42.646;23.380;2023-09-19T03:43:26;10.73;;;6.97;;
8279;SDS011;8335;42.646;23.380;2023-09-19T03:45:55;7.77;;;6.13;;
8279;SDS011;8335;42.646;23.380;2023-09-19T03:48:21;9.43;;;6.57;;
8279;SDS011;8335;42.646;23.380;2023-09-19T03:50:48;7.90;;;6.53;;
8279;SDS011;8335;42.646;23.380;2023-09-19T03:53:16;9.77;;;6.97;;
8279;SDS011;8335;42.646;23.380;2023-09-19T03:55:44;11.70;;;6.73;;
8279;SDS011;8335;42.646;23.380;2023-09-19T03:58:11;11.37;;;7.20;;
8279;SDS011;8335;42.646;23.380;2023-09-19T04:00:38;11.73;;;7.33;;
8279;SDS011;8335;42.646;23.380;2023-09-19T04:03:06;13.07;;;6.40;;
8279;SDS011;8335;42.646;23.380;2023-09-19T04:05:34;11.07;;;6.83;;
8279;SDS011;8335;42.646;23.380;2023-09-19T04:08:00;9.23;;;6.50;;
8279;SDS011;8335;42.646;23.380;2023-09-19T04:10:27;8.57;;;6.10;;
8279;SDS011;8335;42.646;23.380;2023-09-19T04:12:55;13.30;;;6.53;;
8279;SDS011;8335;42.646;23.380;2023-09-19T04:15:22;12.40;;;6.80;;
8279;SDS011;8335;42.646;23.380;2023-09-19T04:17:49;16.67;;;7.10;;
8279;SDS011;8335;42.646;23.380;2023-09-19T04:20:18;12.13;;;7.77;;
8279;SDS011;8335;42.646;23.380;2023-09-19T04:22:45;21.03;;;8.23;;
8279;SDS011;8335;42.646;23.380;2023-09-19T04:25:12;18.03;;;7.40;;
8279;SDS011;8335;42.646;23.380;2023-09-19T04:27:39;13.70;;;7.83;;
8279;SDS011;8335;42.646;23.380;2023-09-19T04:30:07;19.27;;;7.90;;
8279;SDS011;8335;42.646;23.380;2023-09-19T04:32:37;13.93;;;7.57;;
8279;SDS011;8335;42.646;23.380;2023-09-19T04:35:05;20.33;;;7.53;;
8279;SDS011;8335;42.646;23.380;2023-09-19T04:37:35;19.67;;;6.93;;
8279;SDS011;8335;42.646;23.380;2023-09-19T04:40:03;14.40;;;6.37;;
8279;SDS011;8335;42.646;23.380;2023-09-19T04:42:32;9.38;;;5.88;;
8279;SDS011;8335;42.646;23.380;2023-09-19T04:44:58;11.75;;;6.63;;
8279;SDS011;8335;42.646;23.380;2023-09-19T04:47:27;14.70;;;6.80;;
8279;SDS011;8335;42.646;23.380;2023-09-19T04:49:53;8.60;;;6.32;;
8279;SDS011;8335;42.646;23.380;2023-09-19T04:52:22;9.27;;;6.82;;
8279;SDS011;8335;42.646;23.380;2023-09-19T04:54:50;10.82;;;6.90;;
8279;SDS011;8335;42.646;23.380;2023-09-19T04:57:16;12.73;;;6.60;;
8279;SDS011;8335;42.646;23.380;2023-09-19T04:59:43;11.48;;;7.43;;
8279;SDS011;8335;42.646;23.380;2023-09-19T05:02:10;9.85;;;6.85;;
8279;SDS011;8335;42.646;23.380;2023-09-19T05:04:37;12.18;;;6.93;;
8279;SDS011;8335;42.646;23.380;2023-09-19T05:07:04;11.57;;;6.93;;
8279;SDS011;8335;42.646;23.380;2023-09-19T05:09:31;9.23;;;6.15;;
8279;SDS011;8335;42.646;23.380;2023-09-19T05:12:01;11.35;;;6.78;;
8279;SDS011;8335;42.646;23.380;2023-09-19T05:14:30;10.23;;;6.70;;
8279;SDS011;8335;42.646;23.380;2023-09-19T05:16:57;9.10;;;6.57;;
8279;SDS011;8335;42.646;23.380;2023-09-19T05:19:26;7.45;;;5.72;;
8279;SDS011;8335;42.646;23.380;2023-09-19T05:21:52;11.43;;;5.78;;
8279;SDS011;8335;42.646;23.380;2023-09-19T05:24:20;8.15;;;5.63;;
8279;SDS011;8335;42.646;23.380;2023-09-19T05:26:48;11.55;;;6.15;;
8279;SDS011;8335;42.646;23.380;2023-09-19T05:29:16;9.18;;;5.90;;
8279;SDS011;8335;42.646;23.380;2023-09-19T05:31:43;7.20;;;5.55;;
8279;SDS011;8335;42.646;23.380;2023-09-19T05:34:10;10.85;;;6.65;;
8279;SDS011;8335;42.646;23.380;2023-09-19T05:36:37;12.13;;;5.88;;
8279;SDS011;8335;42.646;23.380;2023-09-19T05:39:04;10.55;;;7.18;;
8279;SDS011;8335;42.646;23.380;2023-09-19T05:41:34;10.20;;;7.00;;
8279;SDS011;8335;42.646;23.380;2023-09-19T05:44:01;13.15;;;6.38;;
8279;SDS011;8335;42.646;23.380;2023-09-19T05:46:30;12.57;;;6.20;;
8279;SDS011;8335;42.646;23.380;2023-09-19T05:48:56;11.27;;;5.63;;
8279;SDS011;8335;42.646;23.380;2023-09-19T05:51:23;8.45;;;5.38;;
8279;SDS011;8335;42.646;23.380;2023-09-19T05:53:53;11.57;;;5.70;;
8279;SDS011;8335;42.646;23.380;2023-09-19T05:56:20;5.65;;;4.78;;
8279;SDS011;8335;42.646;23.380;2023-09-19T05:58:47;7.97;;;4.68;;
8279;SDS011;8335;42.646;23.380;2023-09-19T06:01:14;10.70;;;5.20;;
8279;SDS011;8335;42.646;23.380;2023-09-19T06:03:43;6.50;;;5.18;;
8279;SDS011;8335;42.646;23.380;2023-09-19T06:06:09;7.53;;;5.13;;
8279;SDS011;8335;42.646;23.380;2023-09-19T06:08:36;6.82;;;4.72;;
8279;SDS011;8335;42.646;23.380;2023-09-19T06:11:03;9.32;;;4.80;;
8279;SDS011;8335;42.646;23.380;2023-09-19T06:13:32;7.95;;;4.72;;
8279;SDS011;8335;42.646;23.380;2023-09-19T06:15:59;7.13;;;4.78;;
8279;SDS011;8335;42.646;23.380;2023-09-19T06:18:28;5.50;;;4.53;;
8279;SDS011;8335;42.646;23.380;2023-09-19T06:21:00;9.13;;;4.85;;
8279;SDS011;8335;42.646;23.380;2023-09-19T06:23:30;12.07;;;4.95;;
8279;SDS011;8335;42.646;23.380;2023-09-19T06:25:57;12.27;;;4.38;;
8279;SDS011;8335;42.646;23.380;2023-09-19T06:28:24;7.78;;;4.53;;
8279;SDS011;8335;42.646;23.380;2023-09-19T06:30:53;10.18;;;4.90;;
8279;SDS011;8335;42.646;23.380;2023-09-19T06:33:20;5.82;;;4.53;;
8279;SDS011;8335;42.646;23.380;2023-09-19T06:35:47;6.82;;;4.70;;
8279;SDS011;8335;42.646;23.380;2023-09-19T06:38:15;37.28;;;7.30;;
8279;SDS011;8335;42.646;23.380;2023-09-19T06:40:44;8.15;;;4.70;;
8279;SDS011;8335;42.646;23.380;2023-09-19T06:43:11;9.02;;;5.15;;
8279;SDS011;8335;42.646;23.380;2023-09-19T06:45:39;7.63;;;4.63;;
8279;SDS011;8335;42.646;23.380;2023-09-19T06:48:06;9.10;;;4.68;;
8279;SDS011;8335;42.646;23.380;2023-09-19T06:50:35;7.07;;;4.00;;
8279;SDS011;8335;42.646;23.380;2023-09-19T06:53:01;11.55;;;4.43;;
8279;SDS011;8335;42.646;23.380;2023-09-19T06:55:30;7.97;;;4.25;;
8279;SDS011;8335;42.646;23.380;2023-09-19T06:57:57;9.52;;;4.70;;
8279;SDS011;8335;42.646;23.380;2023-09-19T07:00:24;11.48;;;5.25;;
8279;SDS011;8335;42.646;23.380;2023-09-19T07:02:57;8.50;;;6.20;;
8279;SDS011;8335;42.646;23.380;2023-09-19T07:05:26;10.80;;;5.10;;
8279;SDS011;8335;42.646;23.380;2023-09-19T07:07:54;7.22;;;4.78;;
8279;SDS011;8335;42.646;23.380;2023-09-19T07:10:21;18.00;;;10.02;;
8279;SDS011;8335;42.646;23.380;2023-09-19T07:12:58;15.90;;;10.00;;
8279;SDS011;8335;42.646;23.380;2023-09-19T07:15:25;14.70;;;10.13;;
8279;SDS011;8335;42.646;23.380;2023-09-19T07:17:53;13.50;;;8.65;;
8279;SDS011;8335;42.646;23.380;2023-09-19T07:20:21;12.90;;;8.40;;
8279;SDS011;8335;42.646;23.380;2023-09-19T07:22:51;9.23;;;6.97;;
8279;SDS011;8335;42.646;23.380;2023-09-19T07:25:19;9.40;;;6.25;;
8279;SDS011;8335;42.646;23.380;2023-09-19T07:27:46;9.93;;;6.50;;
8279;SDS011;8335;42.646;23.380;2023-09-19T07:30:15;13.70;;;6.60;;
8279;SDS011;8335;42.646;23.380;2023-09-19T07:32:42;11.65;;;5.40;;
8279;SDS011;8335;42.646;23.380;2023-09-19T07:35:08;8.93;;;5.30;;
8279;SDS011;8335;42.646;23.380;2023-09-19T07:37:37;11.02;;;5.38;;
8279;SDS011;8335;42.646;23.380;2023-09-19T07:40:04;11.38;;;5.07;;
8279;SDS011;8335;42.646;23.380;2023-09-19T07:42:33;7.35;;;5.35;;
8279;SDS011;8335;42.646;23.380;2023-09-19T07:45:00;7.22;;;4.88;;
8279;SDS011;8335;42.646;23.380;2023-09-19T07:47:28;12.27;;;5.15;;
8279;SDS011;8335;42.646;23.380;2023-09-19T07:49:57;6.63;;;5.18;;
8279;SDS011;8335;42.646;23.380;2023-09-19T07:52:25;5.68;;;4.95;;
8279;SDS011;8335;42.646;23.380;2023-09-19T07:54:52;8.10;;;5.63;;
8279;SDS011;8335;42.646;23.380;2023-09-19T07:57:23;6.60;;;4.75;;
8279;SDS011;8335;42.646;23.380;2023-09-19T07:59:53;6.80;;;5.25;;
8279;SDS011;8335;42.646;23.380;2023-09-19T08:02:20;6.82;;;5.00;;
8279;SDS011;8335;42.646;23.380;2023-09-19T08:04:49;11.65;;;4.95;;
8279;SDS011;8335;42.646;23.380;2023-09-19T08:07:17;5.20;;;4.32;;
8279;SDS011;8335;42.646;23.380;2023-09-19T08:09:43;11.82;;;5.47;;
8279;SDS011;8335;42.646;23.380;2023-09-19T08:12:13;7.10;;;4.65;;
8279;SDS011;8335;42.646;23.380;2023-09-19T08:14:40;10.90;;;5.20;;
8279;SDS011;8335;42.646;23.380;2023-09-19T08:17:07;8.57;;;5.38;;
8279;SDS011;8335;42.646;23.380;2023-09-19T08:19:34;11.88;;;4.88;;
8279;SDS011;8335;42.646;23.380;2023-09-19T08:22:07;7.40;;;4.28;;
8279;SDS011;8335;42.646;23.380;2023-09-19T08:24:35;10.63;;;4.30;;
8279;SDS011;8335;42.646;23.380;2023-09-19T08:27:03;8.05;;;4.10;;
8279;SDS011;8335;42.646;23.380;2023-09-19T08:29:34;10.38;;;4.40;;
8279;SDS011;8335;42.646;23.380;2023-09-19T08:32:00;8.32;;;4.53;;
8279;SDS011;8335;42.646;23.380;2023-09-19T08:34:27;6.63;;;4.68;;
8279;SDS011;8335;42.646;23.380;2023-09-19T08:36:58;10.52;;;4.93;;
8279;SDS011;8335;42.646;23.380;2023-09-19T08:39:26;7.25;;;4.15;;
8279;SDS011;8335;42.646;23.380;2023-09-19T08:41:56;5.43;;;4.50;;
8279;SDS011;8335;42.646;23.380;2023-09-19T08:44:23;4.95;;;3.78;;
8279;SDS011;8335;42.646;23.380;2023-09-19T08:46:50;5.47;;;4.25;;
8279;SDS011;8335;42.646;23.380;2023-09-19T08:49:24;6.53;;;4.57;;
8279;SDS011;8335;42.646;23.380;2023-09-19T08:51:58;5.97;;;4.00;;
8279;SDS011;8335;42.646;23.380;2023-09-19T08:54:32;7.75;;;4.25;;
8279;SDS011;8335;42.646;23.380;2023-09-19T08:57:05;11.23;;;4.18;;
8279;SDS011;8335;42.646;23.380;2023-09-19T08:59:36;6.78;;;4.30;;
8279;SDS011;8335;42.646;23.380;2023-09-19T09:02:07;8.23;;;4.07;;
8279;SDS011;8335;42.646;23.380;2023-09-19T09:04:38;6.75;;;4.15;;
8279;SDS011;8335;42.646;23.380;2023-09-19T09:07:07;12.20;;;4.20;;
8279;SDS011;8335;42.646;23.380;2023-09-19T09:09:38;7.45;;;4.40;;
8279;SDS011;8335;42.646;23.380;2023-09-19T09:12:07;10.07;;;4.38;;
8279;SDS011;8335;42.646;23.380;2023-09-19T09:14:37;5.00;;;4.30;;
8279;SDS011;8335;42.646;23.380;2023-09-19T09:17:04;5.18;;;4.10;;
8279;SDS011;8335;42.646;23.380;2023-09-19T09:19:32;7.53;;;4.07;;
8279;SDS011;8335;42.646;23.380;2023-09-19T09:22:05;11.57;;;4.82;;
8279;SDS011;8335;42.646;23.380;2023-09-19T09:24:33;10.40;;;4.70;;
8279;SDS011;8335;42.646;23.380;2023-09-19T09:27:04;9.20;;;4.70;;
8279;SDS011;8335;42.646;23.380;2023-09-19T09:29:42;6.88;;;4.45;;
8279;SDS011;8335;42.646;23.380;2023-09-19T09:32:22;6.15;;;4.45;;
8279;SDS011;8335;42.646;23.380;2023-09-19T09:34:50;6.50;;;4.32;;
8279;SDS011;8335;42.646;23.380;2023-09-19T09:37:18;8.88;;;4.45;;
8279;SDS011;8335;42.646;23.380;2023-09-19T09:39:50;11.38;;;4.10;;
8279;SDS011;8335;42.646;23.380;2023-09-19T09:42:31;9.45;;;4.38;;
8279;SDS011;8335;42.646;23.380;2023-09-19T09:45:12;12.43;;;5.05;;
8279;SDS011;8335;42.646;23.380;2023-09-19T09:47:43;6.15;;;4.43;;
8279;SDS011;8335;42.646;23.380;2023-09-19T09:50:24;4.85;;;3.97;;
8279;SDS011;8335;42.646;23.380;2023-09-19T09:53:06;6.20;;;3.95;;
8279;SDS011;8335;42.646;23.380;2023-09-19T09:56:02;5.40;;;4.10;;
8279;SDS011;8335;42.646;23.380;2023-09-19T09:58:33;11.55;;;5.00;;
8279;SDS011;8335;42.646;23.380;2023-09-19T10:01:01;6.05;;;4.28;;
8279;SDS011;8335;42.646;23.380;2023-09-19T10:03:34;6.18;;;4.30;;
8279;SDS011;8335;42.646;23.380;2023-09-19T10:06:05;9.40;;;4.40;;
8279;SDS011;8335;42.646;23.380;2023-09-19T10:09:02;7.30;;;4.18;;
8279;SDS011;8335;42.646;23.380;2023-09-19T10:11:38;11.45;;;4.35;;
8279;SDS011;8335;42.646;23.380;2023-09-19T10:14:09;5.45;;;4.63;;
8279;SDS011;8335;42.646;23.380;2023-09-19T10:16:40;6.45;;;4.32;;
8279;SDS011;8335;42.646;23.380;2023-09-19T10:19:12;7.82;;;4.35;;
8279;SDS011;8335;42.646;23.380;2023-09-19T10:21:42;18.33;;;5.75;;
8279;SDS011;8335;42.646;23.380;2023-09-19T10:24:10;8.73;;;4.65;;
8279;SDS011;8335;42.646;23.380;2023-09-19T10:26:38;7.50;;;4.75;;
8279;SDS011;8335;42.646;23.380;2023-09-19T10:29:10;8.50;;;4.85;;
8279;SDS011;8335;42.646;23.380;2023-09-19T10:31:39;5.35;;;4.45;;
8279;SDS011;8335;42.646;23.380;2023-09-19T10:34:12;6.93;;;4.10;;
8279;SDS011;8335;42.646;23.380;2023-09-19T10:36:40;10.48;;;4.25;;
8279;SDS011;8335;42.646;23.380;2023-09-19T10:39:12;6.00;;;4.30;;
8279;SDS011;8335;42.646;23.380;2023-09-19T10:41:45;7.40;;;4.88;;
8279;SDS011;8335;42.646;23.380;2023-09-19T10:44:20;14.70;;;4.95;;
8279;SDS011;8335;42.646;23.380;2023-09-19T10:46:50;6.15;;;4.63;;
8279;SDS011;8335;42.646;23.380;2023-09-19T10:49:18;6.43;;;4.35;;
8279;SDS011;8335;42.646;23.380;2023-09-19T10:51:45;5.10;;;4.15;;
8279;SDS011;8335;42.646;23.380;2023-09-19T10:54:16;7.03;;;4.35;;
8279;SDS011;8335;42.646;23.380;2023-09-19T10:56:46;8.20;;;4.20;;
8279;SDS011;8335;42.646;23.380;2023-09-19T10:59:16;8.52;;;4.53;;
8279;SDS011;8335;42.646;23.380;2023-09-19T11:01:46;7.18;;;4.20;;
8279;SDS011;8335;42.646;23.380;2023-09-19T11:04:23;8.13;;;4.22;;
8279;SDS011;8335;42.646;23.380;2023-09-19T11:07:01;5.85;;;4.40;;
8279;SDS011;8335;42.646;23.380;2023-09-19T11:09:45;7.13;;;4.50;;
8279;SDS011;8335;42.646;23.380;2023-09-19T11:24:32;7.15;;;4.40;;
8279;SDS011;8335;42.646;23.380;2023-09-19T11:27:10;5.15;;;4.65;;
8279;SDS011;8335;42.646;23.380;2023-09-19T11:29:38;8.15;;;4.55;;
8279;SDS011;8335;42.646;23.380;2023-09-19T11:32:06;5.45;;;4.40;;
8279;SDS011;8335;42.646;23.380;2023-09-19T11:34:46;6.22;;;4.80;;
8279;SDS011;8335;42.646;23.380;2023-09-19T11:40:40;8.15;;;4.55;;
8279;SDS011;8335;42.646;23.380;2023-09-19T11:43:32;9.75;;;4.95;;
8279;SDS011;8335;42.646;23.380;2023-09-19T11:46:08;6.57;;;4.28;;
8279;SDS011;8335;42.646;23.380;2023-09-19T11:48:37;8.23;;;4.25;;
8279;SDS011;8335;42.646;23.380;2023-09-19T11:51:12;11.52;;;4.50;;
8279;SDS011;8335;42.646;23.380;2023-09-19T11:53:47;7.03;;;4.80;;
8279;SDS011;8335;42.646;23.380;2023-09-19T11:56:15;7.93;;;4.50;;
8279;SDS011;8335;42.646;23.380;2023-09-19T11:58:43;8.23;;;4.72;;
8279;SDS011;8335;42.646;23.380;2023-09-19T12:01:13;14.63;;;5.22;;
8279;SDS011;8335;42.646;23.380;2023-09-19T12:03:46;10.25;;;5.18;;
8279;SDS011;8335;42.646;23.380;2023-09-19T12:06:16;7.45;;;4.60;;
8279;SDS011;8335;42.646;23.380;2023-09-19T12:08:43;15.85;;;4.80;;
8279;SDS011;8335;42.646;23.380;2023-09-19T12:11:12;8.35;;;5.10;;
8279;SDS011;8335;42.646;23.380;2023-09-19T12:13:41;8.55;;;4.90;;
8279;SDS011;8335;42.646;23.380;2023-09-19T12:16:12;9.60;;;5.25;;
8279;SDS011;8335;42.646;23.380;2023-09-19T12:18:41;5.43;;;4.75;;
8279;SDS011;8335;42.646;23.380;2023-09-19T12:21:22;6.10;;;4.50;;
8279;SDS011;8335;42.646;23.380;2023-09-19T12:23:56;7.97;;;4.43;;
8279;SDS011;8335;42.646;23.380;2023-09-19T12:26:23;5.50;;;4.78;;
8279;SDS011;8335;42.646;23.380;2023-09-19T12:28:54;6.30;;;4.03;;
8279;SDS011;8335;42.646;23.380;2023-09-19T12:31:21;11.77;;;5.28;;
8279;SDS011;8335;42.646;23.380;2023-09-19T12:33:52;7.05;;;4.85;;
8279;SDS011;8335;42.646;23.380;2023-09-19T12:36:21;7.68;;;4.78;;
8279;SDS011;8335;42.646;23.380;2023-09-19T12:38:54;8.63;;;5.00;;
8279;SDS011;8335;42.646;23.380;2023-09-19T12:41:21;6.82;;;4.80;;
8279;SDS011;8335;42.646;23.380;2023-09-19T12:43:48;7.65;;;4.38;;
8279;SDS011;8335;42.646;23.380;2023-09-19T12:46:19;6.25;;;4.40;;
8279;SDS011;8335;42.646;23.380;2023-09-19T12:48:49;6.57;;;4.43;;
8279;SDS011;8335;42.646;23.380;2023-09-19T12:51:45;6.90;;;4.38;;
8279;SDS011;8335;42.646;23.380;2023-09-19T12:54:12;5.65;;;4.22;;
8279;SDS011;8335;42.646;23.380;2023-09-19T12:56:40;5.18;;;4.65;;
8279;SDS011;8335;42.646;23.380;2023-09-19T12:59:09;5.05;;;4.55;;
8279;SDS011;8335;42.646;23.380;2023-09-19T13:01:38;7.65;;;4.97;;
8279;SDS011;8335;42.646;23.380;2023-09-19T13:04:10;5.38;;;4.85;;
8279;SDS011;8335;42.646;23.380;2023-09-19T13:06:40;5.97;;;4.65;;
8279;SDS011;8335;42.646;23.380;2023-09-19T13:09:10;6.50;;;4.28;;
8279;SDS011;8335;42.646;23.380;2023-09-19T13:11:39;6.15;;;4.60;;
8279;SDS011;8335;42.646;23.380;2023-09-19T13:14:18;13.57;;;5.10;;
8279;SDS011;8335;42.646;23.380;2023-09-19T13:16:53;7.75;;;5.00;;
8279;SDS011;8335;42.646;23.380;2023-09-19T13:19:36;5.72;;;5.00;;
8279;SDS011;8335;42.646;23.380;2023-09-19T13:22:05;7.70;;;5.20;;
8279;SDS011;8335;42.646;23.380;2023-09-19T13:24:54;6.10;;;4.68;;
8279;SDS011;8335;42.646;23.380;2023-09-19T13:27:21;6.45;;;4.50;;
8279;SDS011;8335;42.646;23.380;2023-09-19T13:29:48;7.60;;;4.70;;
8279;SDS011;8335;42.646;23.380;2023-09-19T13:32:15;8.55;;;5.22;;
8279;SDS011;8335;42.646;23.380;2023-09-19T13:34:42;9.25;;;5.13;;
8279;SDS011;8335;42.646;23.380;2023-09-19T13:37:08;5.78;;;4.47;;
8279;SDS011;8335;42.646;23.380;2023-09-19T13:39:35;7.45;;;5.05;;
8279;SDS011;8335;42.646;23.380;2023-09-19T13:42:09;12.63;;;6.53;;
8279;SDS011;8335;42.646;23.380;2023-09-19T13:44:37;7.45;;;4.75;;
8279;SDS011;8335;42.646;23.380;2023-09-19T13:47:03;9.73;;;4.90;;
8279;SDS011;8335;42.646;23.380;2023-09-19T13:49:34;8.52;;;4.72;;
8279;SDS011;8335;42.646;23.380;2023-09-19T13:52:02;11.27;;;5.68;;
8279;SDS011;8335;42.646;23.380;2023-09-19T13:54:30;7.00;;;4.60;;
8279;SDS011;8335;42.646;23.380;2023-09-19T13:56:57;6.60;;;5.15;;
8279;SDS011;8335;42.646;23.380;2023-09-19T13:59:25;6.95;;;5.30;;
8279;SDS011;8335;42.646;23.380;2023-09-19T14:01:53;8.63;;;5.70;;
8279;SDS011;8335;42.646;23.380;2023-09-19T14:04:21;8.35;;;5.60;;
8279;SDS011;8335;42.646;23.380;2023-09-19T14:06:48;11.43;;;6.40;;
8279;SDS011;8335;42.646;23.380;2023-09-19T14:09:15;10.68;;;5.97;;
8279;SDS011;8335;42.646;23.380;2023-09-19T14:11:41;9.10;;;6.55;;
8279;SDS011;8335;42.646;23.380;2023-09-19T14:14:11;23.85;;;13.32;;
8279;SDS011;8335;42.646;23.380;2023-09-19T14:16:39;25.70;;;12.32;;
8279;SDS011;8335;42.646;23.380;2023-09-19T14:19:07;8.25;;;6.13;;
8279;SDS011;8335;42.646;23.380;2023-09-19T14:21:34;7.43;;;5.50;;
8279;SDS011;8335;42.646;23.380;2023-09-19T14:24:01;8.02;;;5.28;;
8279;SDS011;8335;42.646;23.380;2023-09-19T14:26:28;7.10;;;5.20;;
8279;SDS011;8335;42.646;23.380;2023-09-19T14:28:55;6.30;;;5.47;;
8279;SDS011;8335;42.646;23.380;2023-09-19T14:31:22;7.40;;;5.47;;
8279;SDS011;8335;42.646;23.380;2023-09-19T14:33:54;9.07;;;5.10;;
8279;SDS011;8335;42.646;23.380;2023-09-19T14:36:22;8.98;;;6.32;;
8279;SDS011;8335;42.646;23.380;2023-09-19T14:38:51;7.50;;;5.03;;
8279;SDS011;8335;42.646;23.380;2023-09-19T14:41:20;8.73;;;5.40;;
8279;SDS011;8335;42.646;23.380;2023-09-19T14:43:48;11.15;;;5.47;;
8279;SDS011;8335;42.646;23.380;2023-09-19T14:46:15;6.93;;;5.28;;
8279;SDS011;8335;42.646;23.380;2023-09-19T14:48:41;8.98;;;5.47;;
8279;SDS011;8335;42.646;23.380;2023-09-19T14:51:10;8.65;;;5.05;;
8279;SDS011;8335;42.646;23.380;2023-09-19T14:53:38;7.75;;;5.90;;
8279;SDS011;8335;42.646;23.380;2023-09-19T14:56:06;8.27;;;5.85;;
8279;SDS011;8335;42.646;23.380;2023-09-19T14:58:34;10.82;;;5.40;;
8279;SDS011;8335;42.646;23.380;2023-09-19T15:01:02;8.43;;;5.85;;
8279;SDS011;8335;42.646;23.380;2023-09-19T15:03:30;12.75;;;6.10;;
8279;SDS011;8335;42.646;23.380;2023-09-19T15:05:59;8.35;;;5.63;;
8279;SDS011;8335;42.646;23.380;2023-09-19T15:08:28;8.30;;;5.53;;
8279;SDS011;8335;42.646;23.380;2023-09-19T15:10:54;8.52;;;5.90;;
8279;SDS011;8335;42.646;23.380;2023-09-19T15:13:23;12.38;;;5.38;;
8279;SDS011;8335;42.646;23.380;2023-09-19T15:15:57;7.57;;;5.32;;
8279;SDS011;8335;42.646;23.380;2023-09-19T15:18:25;10.80;;;5.57;;
8279;SDS011;8335;42.646;23.380;2023-09-19T15:20:51;6.28;;;5.55;;
8279;SDS011;8335;42.646;23.380;2023-09-19T15:23:19;7.40;;;5.20;;
8279;SDS011;8335;42.646;23.380;2023-09-19T15:25:48;10.38;;;5.78;;
8279;SDS011;8335;42.646;23.380;2023-09-19T15:28:16;7.18;;;5.50;;